• Join FlightAware (Why Join?)
  • Login
  • US Flag 
11:52PM EDT


 

Airport Tracker/Info


-or-


 

Live Flight TrackerFlight Track Log ✈ ASQ5958 ✈ 08-Apr-2013 ✈ KGJT - KDEN

Flight Track Log - Related Links

Times and Time Zones

All times are in EDT time to prevent confusion due to time zone crossing. See the ASQ5958 flight status page for this flight to view local times or setup timezone preferences in your user account.

Time Position Orientation Groundspeed Altitude Reporting Facility
EDT Latitude Longitude Course Direction KTS MPH feet Rate Location/Type
08:10AM 39.0775 -108.4906 76° East 184 212 8,000  Level Denver Center
08:11AM 39.0272 -108.4553 151° Southeast 209 241 11,000 2,640 Climbing Denver Center
08:12AM 39.0125 -108.3644 102° East 251 289 13,400 1,920 Climbing Denver Center
08:13AM 39.0008 -108.2542 98° East 319 367 14,900 1,380 Climbing Denver Center
08:14AM 38.9894 -108.1364 97° East 354 407 16,300 1,680 Climbing Denver Center
08:15AM 38.8326 -107.9157 76° East  Level FlightAware Approximate
08:15AM 38.9772 -108.0025 97° East 390 449 18,300  Level Denver Center
08:16AM 38.9625 -107.8447 97° East 399 459 20,700 2,220 Climbing Denver Center
08:17AM 38.9492 -107.7089 97° East 401 461 22,800 1,920 Climbing Denver Center
08:18AM 38.9361 -107.5733 97° East 400 460 24,600 1,080 Climbing Denver Center
08:19AM 38.9175 -107.4064 98° East 417 480 25,000 180 Climbing Denver Center
08:20AM 38.9011 -107.2486 98° East 453 521 25,000  Level Denver Center
08:21AM 38.8825 -107.0869 98° East 475 547 25,000  Level Denver Center
08:22AM 38.8653 -106.9308 98° East 470 541 25,000  Level Denver Center
08:23AM 38.8467 -106.7633 98° East 465 535 25,000  Level Denver Center
08:24AM 38.8244 -106.5697 98° East 469 540 25,000  Level Denver Center
08:25AM 38.8458 -106.4033 81° East 486 559 25,000  Level Denver Center
08:26AM 38.9244 -106.2672 53° Northeast 490 564 25,000  Level Denver Center
08:27AM 39.0156 -106.1178 52° Northeast 496 571 25,000  Level Denver Center
08:28AM 39.1006 -105.9756 52° Northeast 497 572 25,000 -600 Level Denver Center
08:29AM 39.1858 -105.8325 52° Northeast 498 573 23,800 -1,860 Descending Denver Center
08:30AM 39.2653 -105.6986 53° Northeast 471 542 21,300 -2,400 Descending Denver Center
08:31AM 39.3408 -105.5725 52° Northeast 445 512 19,000 -1,980 Descending Denver Center
08:32AM 39.4064 -105.4625 52° Northeast 413 475 17,400 -1,680 Descending Denver Center
08:33AM 39.4683 -105.3597 52° Northeast 358 412 15,700 -1,620 Descending Denver Center
08:34AM 39.5256 -105.2589 54° Northeast 348 400 14,200 -900 Descending Denver Center
08:35AM 39.5878 -105.1547 52° Northeast 337 388 14,000 -120 Descending Denver Center
08:36AM 39.6453 -105.0539 53° Northeast 353 406 14,000  Level Denver Center
08:37AM 39.7039 -104.9542 53° Northeast 346 398 14,000 -240 Level Denver Center
08:38AM 39.7561 -104.8650 53° Northeast 296 341 13,600 -1,080 Descending Denver Center
08:39AM 39.8294 -104.8428 13° North 277 319 11,900 -1,320 Descending Denver Center
08:40AM 39.9031 -104.8375 North 263 303 11,000 -960 Descending Denver Center
08:41AM 39.9747 -104.8356 North 257 296 10,000 -1,740 Descending Denver Center
08:42AM 40.0417 -104.8208 10° North 253 291 7,600 -1,500 Descending Denver Center
08:43AM 40.0322 -104.7483 100° East 222 255 7,000 -360 Descending Denver Center
08:44AM 39.9725 -104.7117 155° Southeast 219 252 6,900 -540 Descending Denver Center
08:45AM 39.9311 -104.6953 163° South 160 184 6,000 -840 Descending Denver Center
08:46AM 39.8922 -104.6967 182° South 142 163 5,300 -720 Descending Denver Center
08:48AM 39.8617 -104.6732 218° Southwest  Level Estimated
08:55AM 39.8617 -104.6732 218° Southwest  Level Estimated
08:56AM 39.8617 -104.6732 218° Southwest  Level Estimated